sensor_id;sensor_type;location;lat;lon;timestamp;P1;durP1;ratioP1;P2;durP2;ratioP2
49730;SDS011;35622;52.008;5.426;2023-12-20T00:00:24;7.63;;;1.80;;
49730;SDS011;35622;52.008;5.426;2023-12-20T00:02:49;6.97;;;1.98;;
49730;SDS011;35622;52.008;5.426;2023-12-20T00:05:15;7.40;;;1.80;;
49730;SDS011;35622;52.008;5.426;2023-12-20T00:07:41;5.05;;;1.83;;
49730;SDS011;35622;52.008;5.426;2023-12-20T00:10:06;14.32;;;2.63;;
49730;SDS011;35622;52.008;5.426;2023-12-20T00:12:32;5.18;;;1.70;;
49730;SDS011;35622;52.008;5.426;2023-12-20T00:14:58;7.68;;;2.20;;
49730;SDS011;35622;52.008;5.426;2023-12-20T00:17:23;13.02;;;2.63;;
49730;SDS011;35622;52.008;5.426;2023-12-20T00:19:49;11.82;;;2.08;;
49730;SDS011;35622;52.008;5.426;2023-12-20T00:22:15;10.07;;;2.58;;
49730;SDS011;35622;52.008;5.426;2023-12-20T00:24:40;8.75;;;2.10;;
49730;SDS011;35622;52.008;5.426;2023-12-20T00:27:06;8.27;;;2.33;;
49730;SDS011;35622;52.008;5.426;2023-12-20T00:29:31;12.85;;;2.45;;
49730;SDS011;35622;52.008;5.426;2023-12-20T00:31:57;12.65;;;2.20;;
49730;SDS011;35622;52.008;5.426;2023-12-20T00:34:22;8.52;;;1.65;;
49730;SDS011;35622;52.008;5.426;2023-12-20T00:36:48;11.18;;;1.90;;
49730;SDS011;35622;52.008;5.426;2023-12-20T00:39:14;8.85;;;1.83;;
49730;SDS011;35622;52.008;5.426;2023-12-20T00:41:39;3.78;;;1.48;;
49730;SDS011;35622;52.008;5.426;2023-12-20T00:44:05;9.57;;;1.73;;
49730;SDS011;35622;52.008;5.426;2023-12-20T00:46:30;6.50;;;1.50;;
49730;SDS011;35622;52.008;5.426;2023-12-20T00:49:04;6.53;;;1.90;;
49730;SDS011;35622;52.008;5.426;2023-12-20T00:51:30;4.32;;;1.33;;
49730;SDS011;35622;52.008;5.426;2023-12-20T00:53:55;10.10;;;1.83;;
49730;SDS011;35622;52.008;5.426;2023-12-20T00:56:21;6.85;;;1.33;;
49730;SDS011;35622;52.008;5.426;2023-12-20T00:58:47;4.32;;;1.70;;
49730;SDS011;35622;52.008;5.426;2023-12-20T01:01:12;4.53;;;1.30;;
49730;SDS011;35622;52.008;5.426;2023-12-20T01:03:38;8.07;;;1.45;;
49730;SDS011;35622;52.008;5.426;2023-12-20T01:06:04;11.77;;;1.55;;
49730;SDS011;35622;52.008;5.426;2023-12-20T01:08:30;6.20;;;1.17;;
49730;SDS011;35622;52.008;5.426;2023-12-20T01:10:55;4.95;;;1.33;;
49730;SDS011;35622;52.008;5.426;2023-12-20T01:13:21;7.78;;;1.30;;
49730;SDS011;35622;52.008;5.426;2023-12-20T01:15:47;6.07;;;1.50;;
49730;SDS011;35622;52.008;5.426;2023-12-20T01:18:13;9.43;;;1.60;;
49730;SDS011;35622;52.008;5.426;2023-12-20T01:20:39;12.75;;;1.85;;
49730;SDS011;35622;52.008;5.426;2023-12-20T01:23:05;12.68;;;1.83;;
49730;SDS011;35622;52.008;5.426;2023-12-20T01:25:30;7.70;;;1.50;;
49730;SDS011;35622;52.008;5.426;2023-12-20T01:27:56;5.68;;;1.42;;
49730;SDS011;35622;52.008;5.426;2023-12-20T01:30:21;9.63;;;1.83;;
49730;SDS011;35622;52.008;5.426;2023-12-20T01:32:47;6.78;;;1.40;;
49730;SDS011;35622;52.008;5.426;2023-12-20T01:35:13;7.35;;;1.38;;
49730;SDS011;35622;52.008;5.426;2023-12-20T01:37:38;8.52;;;2.05;;
49730;SDS011;35622;52.008;5.426;2023-12-20T01:40:04;11.48;;;1.65;;
49730;SDS011;35622;52.008;5.426;2023-12-20T01:42:30;14.55;;;1.83;;
49730;SDS011;35622;52.008;5.426;2023-12-20T01:44:56;24.77;;;1.92;;
49730;SDS011;35622;52.008;5.426;2023-12-20T01:47:21;6.43;;;1.65;;
49730;SDS011;35622;52.008;5.426;2023-12-20T01:49:47;5.23;;;1.60;;
49730;SDS011;35622;52.008;5.426;2023-12-20T01:52:14;7.82;;;1.98;;
49730;SDS011;35622;52.008;5.426;2023-12-20T01:54:40;10.82;;;1.83;;
49730;SDS011;35622;52.008;5.426;2023-12-20T01:57:06;8.75;;;1.80;;
49730;SDS011;35622;52.008;5.426;2023-12-20T01:59:33;10.00;;;1.33;;
49730;SDS011;35622;52.008;5.426;2023-12-20T02:01:59;9.57;;;1.65;;
49730;SDS011;35622;52.008;5.426;2023-12-20T02:04:25;12.57;;;1.67;;
49730;SDS011;35622;52.008;5.426;2023-12-20T02:06:52;11.93;;;1.30;;
49730;SDS011;35622;52.008;5.426;2023-12-20T02:09:18;6.25;;;1.33;;
49730;SDS011;35622;52.008;5.426;2023-12-20T02:11:44;8.00;;;1.80;;
49730;SDS011;35622;52.008;5.426;2023-12-20T02:14:09;7.53;;;1.77;;
49730;SDS011;35622;52.008;5.426;2023-12-20T02:16:35;11.30;;;2.05;;
49730;SDS011;35622;52.008;5.426;2023-12-20T02:19:01;7.35;;;1.48;;
49730;SDS011;35622;52.008;5.426;2023-12-20T02:21:32;13.77;;;1.75;;
49730;SDS011;35622;52.008;5.426;2023-12-20T02:23:58;9.10;;;1.90;;
49730;SDS011;35622;52.008;5.426;2023-12-20T02:26:24;12.05;;;1.67;;
49730;SDS011;35622;52.008;5.426;2023-12-20T02:28:50;8.93;;;1.90;;
49730;SDS011;35622;52.008;5.426;2023-12-20T02:31:15;7.43;;;1.67;;
49730;SDS011;35622;52.008;5.426;2023-12-20T02:33:41;8.98;;;1.55;;
49730;SDS011;35622;52.008;5.426;2023-12-20T02:36:07;10.60;;;1.67;;
49730;SDS011;35622;52.008;5.426;2023-12-20T02:38:32;11.90;;;1.95;;
49730;SDS011;35622;52.008;5.426;2023-12-20T02:40:59;12.55;;;2.05;;
49730;SDS011;35622;52.008;5.426;2023-12-20T02:43:24;9.32;;;2.28;;
49730;SDS011;35622;52.008;5.426;2023-12-20T02:45:50;8.90;;;1.73;;
49730;SDS011;35622;52.008;5.426;2023-12-20T02:48:16;10.63;;;2.03;;
49730;SDS011;35622;52.008;5.426;2023-12-20T02:50:41;17.77;;;2.65;;
49730;SDS011;35622;52.008;5.426;2023-12-20T02:53:07;20.70;;;2.03;;
49730;SDS011;35622;52.008;5.426;2023-12-20T02:55:32;10.63;;;2.50;;
49730;SDS011;35622;52.008;5.426;2023-12-20T02:57:58;11.98;;;2.10;;
49730;SDS011;35622;52.008;5.426;2023-12-20T03:00:24;11.40;;;1.85;;
49730;SDS011;35622;52.008;5.426;2023-12-20T03:02:49;14.43;;;2.72;;
49730;SDS011;35622;52.008;5.426;2023-12-20T03:05:15;13.07;;;1.90;;
49730;SDS011;35622;52.008;5.426;2023-12-20T03:07:40;9.57;;;2.05;;
49730;SDS011;35622;52.008;5.426;2023-12-20T03:10:06;12.32;;;2.40;;
49730;SDS011;35622;52.008;5.426;2023-12-20T03:12:33;12.30;;;2.95;;
49730;SDS011;35622;52.008;5.426;2023-12-20T03:14:58;14.98;;;2.50;;
49730;SDS011;35622;52.008;5.426;2023-12-20T03:17:24;16.85;;;2.78;;
49730;SDS011;35622;52.008;5.426;2023-12-20T03:19:50;15.77;;;2.33;;
49730;SDS011;35622;52.008;5.426;2023-12-20T03:22:15;15.40;;;2.67;;
49730;SDS011;35622;52.008;5.426;2023-12-20T03:24:41;18.00;;;2.58;;
49730;SDS011;35622;52.008;5.426;2023-12-20T03:27:06;14.27;;;2.63;;
49730;SDS011;35622;52.008;5.426;2023-12-20T03:29:32;11.77;;;2.47;;
49730;SDS011;35622;52.008;5.426;2023-12-20T03:31:57;16.98;;;2.55;;
49730;SDS011;35622;52.008;5.426;2023-12-20T03:34:23;16.42;;;2.60;;
49730;SDS011;35622;52.008;5.426;2023-12-20T03:36:48;15.98;;;2.72;;
49730;SDS011;35622;52.008;5.426;2023-12-20T03:39:14;11.65;;;2.55;;
49730;SDS011;35622;52.008;5.426;2023-12-20T03:41:40;16.40;;;3.17;;
49730;SDS011;35622;52.008;5.426;2023-12-20T03:44:05;9.90;;;1.98;;
49730;SDS011;35622;52.008;5.426;2023-12-20T03:46:31;14.13;;;2.50;;
49730;SDS011;35622;52.008;5.426;2023-12-20T03:48:56;12.95;;;2.92;;
49730;SDS011;35622;52.008;5.426;2023-12-20T03:51:22;14.57;;;2.70;;
49730;SDS011;35622;52.008;5.426;2023-12-20T03:53:47;13.55;;;2.47;;
49730;SDS011;35622;52.008;5.426;2023-12-20T03:56:13;13.40;;;2.47;;
49730;SDS011;35622;52.008;5.426;2023-12-20T03:58:39;10.75;;;2.50;;
49730;SDS011;35622;52.008;5.426;2023-12-20T04:01:08;16.90;;;2.65;;
49730;SDS011;35622;52.008;5.426;2023-12-20T04:03:35;13.27;;;2.70;;
49730;SDS011;35622;52.008;5.426;2023-12-20T04:06:01;20.88;;;3.13;;
49730;SDS011;35622;52.008;5.426;2023-12-20T04:08:27;11.52;;;2.33;;
49730;SDS011;35622;52.008;5.426;2023-12-20T04:10:52;18.23;;;3.20;;
49730;SDS011;35622;52.008;5.426;2023-12-20T04:13:18;15.90;;;3.00;;
49730;SDS011;35622;52.008;5.426;2023-12-20T04:15:43;12.93;;;2.13;;
49730;SDS011;35622;52.008;5.426;2023-12-20T04:18:09;19.05;;;2.92;;
49730;SDS011;35622;52.008;5.426;2023-12-20T04:20:35;23.13;;;2.65;;
49730;SDS011;35622;52.008;5.426;2023-12-20T04:23:00;16.88;;;2.30;;
49730;SDS011;35622;52.008;5.426;2023-12-20T04:25:26;17.92;;;2.72;;
49730;SDS011;35622;52.008;5.426;2023-12-20T04:27:51;12.30;;;2.22;;
49730;SDS011;35622;52.008;5.426;2023-12-20T04:30:17;15.00;;;2.35;;
49730;SDS011;35622;52.008;5.426;2023-12-20T04:32:42;22.17;;;3.15;;
49730;SDS011;35622;52.008;5.426;2023-12-20T04:35:08;18.25;;;2.85;;
49730;SDS011;35622;52.008;5.426;2023-12-20T04:37:34;19.20;;;2.90;;
49730;SDS011;35622;52.008;5.426;2023-12-20T04:39:59;11.35;;;2.20;;
49730;SDS011;35622;52.008;5.426;2023-12-20T04:42:25;16.48;;;2.42;;
49730;SDS011;35622;52.008;5.426;2023-12-20T04:44:50;17.17;;;2.85;;
49730;SDS011;35622;52.008;5.426;2023-12-20T04:47:16;18.23;;;2.65;;
49730;SDS011;35622;52.008;5.426;2023-12-20T04:49:42;15.55;;;2.60;;
49730;SDS011;35622;52.008;5.426;2023-12-20T04:52:07;16.30;;;2.50;;
49730;SDS011;35622;52.008;5.426;2023-12-20T04:54:33;17.23;;;2.92;;
49730;SDS011;35622;52.008;5.426;2023-12-20T04:56:58;16.67;;;2.50;;
49730;SDS011;35622;52.008;5.426;2023-12-20T04:59:24;20.13;;;2.78;;
49730;SDS011;35622;52.008;5.426;2023-12-20T05:01:49;20.85;;;3.47;;
49730;SDS011;35622;52.008;5.426;2023-12-20T05:04:15;12.27;;;2.25;;
49730;SDS011;35622;52.008;5.426;2023-12-20T05:06:41;13.68;;;2.40;;
49730;SDS011;35622;52.008;5.426;2023-12-20T05:09:06;13.80;;;2.60;;
49730;SDS011;35622;52.008;5.426;2023-12-20T05:11:32;12.13;;;2.75;;
49730;SDS011;35622;52.008;5.426;2023-12-20T05:13:57;20.85;;;2.65;;
49730;SDS011;35622;52.008;5.426;2023-12-20T05:16:23;16.50;;;2.92;;
49730;SDS011;35622;52.008;5.426;2023-12-20T05:18:48;19.88;;;2.38;;
49730;SDS011;35622;52.008;5.426;2023-12-20T05:21:17;16.40;;;2.47;;
49730;SDS011;35622;52.008;5.426;2023-12-20T05:23:43;11.50;;;2.45;;
49730;SDS011;35622;52.008;5.426;2023-12-20T05:26:09;15.55;;;2.90;;
49730;SDS011;35622;52.008;5.426;2023-12-20T05:28:34;15.07;;;2.60;;
49730;SDS011;35622;52.008;5.426;2023-12-20T05:31:00;14.80;;;2.50;;
49730;SDS011;35622;52.008;5.426;2023-12-20T05:33:26;16.38;;;3.10;;
49730;SDS011;35622;52.008;5.426;2023-12-20T05:35:51;12.80;;;2.60;;
49730;SDS011;35622;52.008;5.426;2023-12-20T05:38:17;13.23;;;3.10;;
49730;SDS011;35622;52.008;5.426;2023-12-20T05:40:42;12.82;;;2.10;;
49730;SDS011;35622;52.008;5.426;2023-12-20T05:43:08;13.13;;;2.67;;
49730;SDS011;35622;52.008;5.426;2023-12-20T05:45:33;16.40;;;3.00;;
49730;SDS011;35622;52.008;5.426;2023-12-20T05:47:59;15.02;;;2.70;;
49730;SDS011;35622;52.008;5.426;2023-12-20T05:50:25;17.42;;;3.05;;
49730;SDS011;35622;52.008;5.426;2023-12-20T05:52:50;16.42;;;3.03;;
49730;SDS011;35622;52.008;5.426;2023-12-20T05:55:16;17.85;;;2.85;;
49730;SDS011;35622;52.008;5.426;2023-12-20T05:57:41;18.50;;;2.88;;
49730;SDS011;35622;52.008;5.426;2023-12-20T06:00:08;15.57;;;2.72;;
49730;SDS011;35622;52.008;5.426;2023-12-20T06:02:34;11.82;;;2.85;;
49730;SDS011;35622;52.008;5.426;2023-12-20T06:05:01;19.58;;;2.55;;
49730;SDS011;35622;52.008;5.426;2023-12-20T06:07:29;20.77;;;2.85;;
49730;SDS011;35622;52.008;5.426;2023-12-20T06:09:54;13.75;;;2.40;;
49730;SDS011;35622;52.008;5.426;2023-12-20T06:12:20;16.10;;;2.92;;
49730;SDS011;35622;52.008;5.426;2023-12-20T06:14:45;21.73;;;3.55;;
49730;SDS011;35622;52.008;5.426;2023-12-20T06:17:11;13.07;;;2.60;;
49730;SDS011;35622;52.008;5.426;2023-12-20T06:19:37;17.10;;;2.63;;
49730;SDS011;35622;52.008;5.426;2023-12-20T06:22:02;15.23;;;2.80;;
49730;SDS011;35622;52.008;5.426;2023-12-20T06:24:28;16.92;;;3.33;;
49730;SDS011;35622;52.008;5.426;2023-12-20T06:26:54;16.40;;;2.55;;
49730;SDS011;35622;52.008;5.426;2023-12-20T06:29:20;16.88;;;2.45;;
49730;SDS011;35622;52.008;5.426;2023-12-20T06:31:46;17.50;;;2.85;;
49730;SDS011;35622;52.008;5.426;2023-12-20T06:34:11;14.40;;;2.42;;
49730;SDS011;35622;52.008;5.426;2023-12-20T06:36:37;14.10;;;2.20;;
49730;SDS011;35622;52.008;5.426;2023-12-20T06:39:02;11.48;;;2.00;;
49730;SDS011;35622;52.008;5.426;2023-12-20T06:41:29;13.90;;;2.42;;
49730;SDS011;35622;52.008;5.426;2023-12-20T06:43:55;13.65;;;2.38;;
49730;SDS011;35622;52.008;5.426;2023-12-20T06:46:21;15.85;;;3.30;;
49730;SDS011;35622;52.008;5.426;2023-12-20T06:48:46;12.80;;;2.33;;
49730;SDS011;35622;52.008;5.426;2023-12-20T06:51:14;12.13;;;2.85;;
49730;SDS011;35622;52.008;5.426;2023-12-20T06:53:40;20.35;;;2.97;;
49730;SDS011;35622;52.008;5.426;2023-12-20T06:56:06;13.95;;;2.15;;
49730;SDS011;35622;52.008;5.426;2023-12-20T06:58:32;17.63;;;3.08;;
49730;SDS011;35622;52.008;5.426;2023-12-20T07:00:58;16.30;;;2.47;;
49730;SDS011;35622;52.008;5.426;2023-12-20T07:03:23;14.38;;;3.20;;
49730;SDS011;35622;52.008;5.426;2023-12-20T07:05:49;16.83;;;2.80;;
49730;SDS011;35622;52.008;5.426;2023-12-20T07:08:14;16.67;;;2.95;;
49730;SDS011;35622;52.008;5.426;2023-12-20T07:10:40;13.68;;;2.20;;
49730;SDS011;35622;52.008;5.426;2023-12-20T07:13:06;15.32;;;2.80;;
49730;SDS011;35622;52.008;5.426;2023-12-20T07:15:33;15.60;;;2.75;;
49730;SDS011;35622;52.008;5.426;2023-12-20T07:17:58;12.95;;;2.40;;
49730;SDS011;35622;52.008;5.426;2023-12-20T07:20:25;16.35;;;2.67;;
49730;SDS011;35622;52.008;5.426;2023-12-20T07:22:51;16.80;;;2.15;;
49730;SDS011;35622;52.008;5.426;2023-12-20T07:25:16;26.10;;;3.20;;
49730;SDS011;35622;52.008;5.426;2023-12-20T07:27:42;14.73;;;3.67;;
49730;SDS011;35622;52.008;5.426;2023-12-20T07:30:08;16.30;;;2.42;;
49730;SDS011;35622;52.008;5.426;2023-12-20T07:32:34;15.90;;;2.92;;
49730;SDS011;35622;52.008;5.426;2023-12-20T07:35:00;16.10;;;2.38;;
49730;SDS011;35622;52.008;5.426;2023-12-20T07:37:26;11.38;;;2.55;;
49730;SDS011;35622;52.008;5.426;2023-12-20T07:39:51;18.92;;;2.58;;
49730;SDS011;35622;52.008;5.426;2023-12-20T07:42:17;14.20;;;2.25;;
49730;SDS011;35622;52.008;5.426;2023-12-20T07:44:42;15.52;;;2.60;;
49730;SDS011;35622;52.008;5.426;2023-12-20T07:47:08;18.13;;;3.00;;
49730;SDS011;35622;52.008;5.426;2023-12-20T07:49:34;16.08;;;2.53;;
49730;SDS011;35622;52.008;5.426;2023-12-20T07:51:59;21.67;;;2.35;;
49730;SDS011;35622;52.008;5.426;2023-12-20T07:54:25;17.02;;;3.33;;
49730;SDS011;35622;52.008;5.426;2023-12-20T07:56:51;18.17;;;2.90;;
49730;SDS011;35622;52.008;5.426;2023-12-20T07:59:16;17.58;;;2.72;;
49730;SDS011;35622;52.008;5.426;2023-12-20T08:01:42;15.57;;;2.90;;
49730;SDS011;35622;52.008;5.426;2023-12-20T08:04:07;15.05;;;2.47;;
49730;SDS011;35622;52.008;5.426;2023-12-20T08:06:33;13.77;;;2.60;;
49730;SDS011;35622;52.008;5.426;2023-12-20T08:08:59;15.43;;;3.22;;
49730;SDS011;35622;52.008;5.426;2023-12-20T08:11:24;21.77;;;3.33;;
49730;SDS011;35622;52.008;5.426;2023-12-20T08:13:50;18.05;;;2.78;;
49730;SDS011;35622;52.008;5.426;2023-12-20T08:16:16;13.15;;;2.60;;
49730;SDS011;35622;52.008;5.426;2023-12-20T08:18:42;15.35;;;2.50;;
49730;SDS011;35622;52.008;5.426;2023-12-20T08:21:08;16.17;;;3.22;;
49730;SDS011;35622;52.008;5.426;2023-12-20T08:23:34;12.07;;;3.22;;
49730;SDS011;35622;52.008;5.426;2023-12-20T08:26:07;20.95;;;2.85;;
49730;SDS011;35622;52.008;5.426;2023-12-20T08:28:33;16.27;;;2.70;;
49730;SDS011;35622;52.008;5.426;2023-12-20T08:30:59;14.48;;;2.60;;
49730;SDS011;35622;52.008;5.426;2023-12-20T08:33:25;12.15;;;2.33;;
49730;SDS011;35622;52.008;5.426;2023-12-20T08:35:50;18.63;;;3.63;;
49730;SDS011;35622;52.008;5.426;2023-12-20T08:38:16;15.65;;;3.00;;
49730;SDS011;35622;52.008;5.426;2023-12-20T08:40:42;14.40;;;3.22;;
49730;SDS011;35622;52.008;5.426;2023-12-20T08:43:08;15.35;;;2.40;;
49730;SDS011;35622;52.008;5.426;2023-12-20T08:45:34;17.35;;;2.97;;
49730;SDS011;35622;52.008;5.426;2023-12-20T08:48:00;18.70;;;2.60;;
49730;SDS011;35622;52.008;5.426;2023-12-20T08:50:26;14.60;;;2.70;;
49730;SDS011;35622;52.008;5.426;2023-12-20T08:52:51;14.35;;;2.20;;
49730;SDS011;35622;52.008;5.426;2023-12-20T08:55:17;16.00;;;2.53;;
49730;SDS011;35622;52.008;5.426;2023-12-20T08:57:44;16.80;;;3.25;;
49730;SDS011;35622;52.008;5.426;2023-12-20T09:00:10;17.50;;;2.65;;
49730;SDS011;35622;52.008;5.426;2023-12-20T09:02:36;17.00;;;2.30;;
49730;SDS011;35622;52.008;5.426;2023-12-20T09:05:02;15.85;;;2.45;;
49730;SDS011;35622;52.008;5.426;2023-12-20T09:07:28;9.93;;;2.75;;
49730;SDS011;35622;52.008;5.426;2023-12-20T09:09:56;14.23;;;2.53;;
49730;SDS011;35622;52.008;5.426;2023-12-20T09:12:22;18.02;;;2.95;;
49730;SDS011;35622;52.008;5.426;2023-12-20T09:14:49;13.68;;;3.25;;
49730;SDS011;35622;52.008;5.426;2023-12-20T09:17:15;16.75;;;2.40;;
49730;SDS011;35622;52.008;5.426;2023-12-20T09:19:42;11.23;;;2.45;;
49730;SDS011;35622;52.008;5.426;2023-12-20T09:22:11;15.55;;;2.60;;
49730;SDS011;35622;52.008;5.426;2023-12-20T09:24:37;15.25;;;2.25;;
49730;SDS011;35622;52.008;5.426;2023-12-20T09:27:04;9.63;;;2.33;;
49730;SDS011;35622;52.008;5.426;2023-12-20T09:29:30;12.52;;;2.33;;
49730;SDS011;35622;52.008;5.426;2023-12-20T09:31:56;14.10;;;2.78;;
49730;SDS011;35622;52.008;5.426;2023-12-20T09:34:22;16.98;;;2.97;;
49730;SDS011;35622;52.008;5.426;2023-12-20T09:36:48;12.60;;;2.25;;
49730;SDS011;35622;52.008;5.426;2023-12-20T09:39:14;11.93;;;2.40;;
49730;SDS011;35622;52.008;5.426;2023-12-20T09:42:06;19.40;;;3.17;;
49730;SDS011;35622;52.008;5.426;2023-12-20T09:44:32;8.40;;;2.10;;
49730;SDS011;35622;52.008;5.426;2023-12-20T09:47:05;12.90;;;2.45;;
49730;SDS011;35622;52.008;5.426;2023-12-20T09:49:31;13.65;;;2.22;;
49730;SDS011;35622;52.008;5.426;2023-12-20T09:51:57;14.90;;;2.33;;
49730;SDS011;35622;52.008;5.426;2023-12-20T09:54:25;18.58;;;3.45;;
49730;SDS011;35622;52.008;5.426;2023-12-20T09:56:53;15.68;;;2.75;;
49730;SDS011;35622;52.008;5.426;2023-12-20T09:59:19;11.00;;;2.70;;
49730;SDS011;35622;52.008;5.426;2023-12-20T10:01:44;12.80;;;2.42;;
49730;SDS011;35622;52.008;5.426;2023-12-20T10:04:11;16.20;;;2.50;;
49730;SDS011;35622;52.008;5.426;2023-12-20T10:06:41;14.32;;;2.20;;
49730;SDS011;35622;52.008;5.426;2023-12-20T10:09:07;11.38;;;2.20;;
49730;SDS011;35622;52.008;5.426;2023-12-20T10:11:35;13.68;;;2.30;;
49730;SDS011;35622;52.008;5.426;2023-12-20T10:14:04;15.55;;;2.05;;
49730;SDS011;35622;52.008;5.426;2023-12-20T10:16:31;11.93;;;2.70;;
49730;SDS011;35622;52.008;5.426;2023-12-20T10:18:58;14.35;;;2.83;;
49730;SDS011;35622;52.008;5.426;2023-12-20T10:21:24;14.10;;;2.58;;
49730;SDS011;35622;52.008;5.426;2023-12-20T10:23:51;12.55;;;2.55;;
49730;SDS011;35622;52.008;5.426;2023-12-20T10:26:36;18.30;;;2.45;;
49730;SDS011;35622;52.008;5.426;2023-12-20T10:29:02;16.33;;;2.25;;
49730;SDS011;35622;52.008;5.426;2023-12-20T10:31:30;9.38;;;1.70;;
49730;SDS011;35622;52.008;5.426;2023-12-20T10:34:01;9.52;;;2.10;;
49730;SDS011;35622;52.008;5.426;2023-12-20T10:36:31;13.88;;;2.33;;
49730;SDS011;35622;52.008;5.426;2023-12-20T10:38:58;13.02;;;2.35;;
49730;SDS011;35622;52.008;5.426;2023-12-20T10:41:25;11.00;;;2.30;;
49730;SDS011;35622;52.008;5.426;2023-12-20T10:44:04;12.40;;;2.53;;
49730;SDS011;35622;52.008;5.426;2023-12-20T10:46:30;13.93;;;2.10;;
49730;SDS011;35622;52.008;5.426;2023-12-20T10:48:59;14.57;;;2.70;;
49730;SDS011;35622;52.008;5.426;2023-12-20T10:51:27;13.50;;;2.03;;
49730;SDS011;35622;52.008;5.426;2023-12-20T10:53:55;11.48;;;2.33;;
49730;SDS011;35622;52.008;5.426;2023-12-20T10:56:21;12.93;;;2.53;;
49730;SDS011;35622;52.008;5.426;2023-12-20T10:58:48;16.08;;;2.47;;
49730;SDS011;35622;52.008;5.426;2023-12-20T11:01:15;10.48;;;2.40;;
49730;SDS011;35622;52.008;5.426;2023-12-20T11:03:46;16.92;;;3.00;;
49730;SDS011;35622;52.008;5.426;2023-12-20T11:06:33;14.68;;;2.97;;
49730;SDS011;35622;52.008;5.426;2023-12-20T11:09:13;11.07;;;2.50;;
49730;SDS011;35622;52.008;5.426;2023-12-20T11:14:28;13.48;;;2.40;;
49730;SDS011;35622;52.008;5.426;2023-12-20T11:17:14;15.35;;;3.00;;
49730;SDS011;35622;52.008;5.426;2023-12-20T11:20:03;9.68;;;2.10;;
49730;SDS011;35622;52.008;5.426;2023-12-20T11:22:30;10.27;;;1.73;;
49730;SDS011;35622;52.008;5.426;2023-12-20T11:25:04;15.73;;;2.33;;
49730;SDS011;35622;52.008;5.426;2023-12-20T11:27:33;12.02;;;2.35;;
49730;SDS011;35622;52.008;5.426;2023-12-20T11:29:59;13.52;;;2.05;;
49730;SDS011;35622;52.008;5.426;2023-12-20T11:34:56;9.73;;;2.35;;
49730;SDS011;35622;52.008;5.426;2023-12-20T11:37:45;10.25;;;2.08;;
49730;SDS011;35622;52.008;5.426;2023-12-20T11:40:17;10.85;;;1.90;;
49730;SDS011;35622;52.008;5.426;2023-12-20T11:42:49;7.18;;;1.67;;
49730;SDS011;35622;52.008;5.426;2023-12-20T11:45:23;9.60;;;2.08;;
49730;SDS011;35622;52.008;5.426;2023-12-20T11:47:50;8.75;;;2.20;;
49730;SDS011;35622;52.008;5.426;2023-12-20T11:50:20;11.35;;;2.45;;
49730;SDS011;35622;52.008;5.426;2023-12-20T11:52:47;13.73;;;2.35;;
49730;SDS011;35622;52.008;5.426;2023-12-20T11:55:13;14.18;;;2.40;;
49730;SDS011;35622;52.008;5.426;2023-12-20T11:57:39;13.50;;;2.08;;
49730;SDS011;35622;52.008;5.426;2023-12-20T12:00:05;9.90;;;2.28;;
49730;SDS011;35622;52.008;5.426;2023-12-20T12:02:31;12.20;;;2.10;;
49730;SDS011;35622;52.008;5.426;2023-12-20T12:04:57;12.82;;;2.25;;
49730;SDS011;35622;52.008;5.426;2023-12-20T12:07:24;12.35;;;2.17;;
49730;SDS011;35622;52.008;5.426;2023-12-20T12:09:50;11.80;;;1.88;;
49730;SDS011;35622;52.008;5.426;2023-12-20T12:12:16;8.30;;;1.83;;
49730;SDS011;35622;52.008;5.426;2023-12-20T12:14:45;9.73;;;1.70;;
49730;SDS011;35622;52.008;5.426;2023-12-20T12:17:11;13.68;;;2.83;;
49730;SDS011;35622;52.008;5.426;2023-12-20T12:19:38;8.18;;;1.80;;
49730;SDS011;35622;52.008;5.426;2023-12-20T12:22:05;8.45;;;1.75;;
49730;SDS011;35622;52.008;5.426;2023-12-20T12:24:33;11.20;;;2.20;;
49730;SDS011;35622;52.008;5.426;2023-12-20T12:26:59;10.48;;;1.80;;
49730;SDS011;35622;52.008;5.426;2023-12-20T12:29:24;12.35;;;2.00;;
49730;SDS011;35622;52.008;5.426;2023-12-20T12:31:50;9.10;;;1.90;;
49730;SDS011;35622;52.008;5.426;2023-12-20T12:34:17;11.10;;;2.30;;
49730;SDS011;35622;52.008;5.426;2023-12-20T12:36:46;10.88;;;2.15;;
49730;SDS011;35622;52.008;5.426;2023-12-20T12:39:13;9.35;;;1.70;;
49730;SDS011;35622;52.008;5.426;2023-12-20T12:41:41;11.90;;;2.35;;
49730;SDS011;35622;52.008;5.426;2023-12-20T12:44:07;10.45;;;1.83;;
49730;SDS011;35622;52.008;5.426;2023-12-20T12:46:33;9.30;;;1.67;;
49730;SDS011;35622;52.008;5.426;2023-12-20T12:48:59;12.85;;;2.00;;
49730;SDS011;35622;52.008;5.426;2023-12-20T12:51:25;13.85;;;2.78;;
49730;SDS011;35622;52.008;5.426;2023-12-20T12:53:50;13.73;;;2.20;;
49730;SDS011;35622;52.008;5.426;2023-12-20T12:56:16;13.35;;;2.05;;
49730;SDS011;35622;52.008;5.426;2023-12-20T12:58:42;12.60;;;1.80;;
49730;SDS011;35622;52.008;5.426;2023-12-20T13:01:08;14.77;;;2.00;;
49730;SDS011;35622;52.008;5.426;2023-12-20T13:03:35;12.00;;;2.22;;
49730;SDS011;35622;52.008;5.426;2023-12-20T13:06:01;12.60;;;2.17;;
49730;SDS011;35622;52.008;5.426;2023-12-20T13:08:26;11.02;;;2.00;;
49730;SDS011;35622;52.008;5.426;2023-12-20T13:10:53;12.95;;;1.95;;
49730;SDS011;35622;52.008;5.426;2023-12-20T13:13:20;12.65;;;2.08;;
49730;SDS011;35622;52.008;5.426;2023-12-20T13:15:46;10.80;;;2.08;;
49730;SDS011;35622;52.008;5.426;2023-12-20T13:18:16;15.07;;;1.70;;
49730;SDS011;35622;52.008;5.426;2023-12-20T13:20:43;16.20;;;2.20;;
49730;SDS011;35622;52.008;5.426;2023-12-20T13:23:09;11.95;;;2.00;;
49730;SDS011;35622;52.008;5.426;2023-12-20T13:25:34;10.02;;;1.65;;
49730;SDS011;35622;52.008;5.426;2023-12-20T13:28:00;14.50;;;2.28;;
49730;SDS011;35622;52.008;5.426;2023-12-20T13:30:26;8.85;;;1.67;;
49730;SDS011;35622;52.008;5.426;2023-12-20T13:32:51;9.60;;;1.90;;
49730;SDS011;35622;52.008;5.426;2023-12-20T13:35:17;14.43;;;2.47;;
49730;SDS011;35622;52.008;5.426;2023-12-20T13:37:43;11.98;;;1.92;;
49730;SDS011;35622;52.008;5.426;2023-12-20T13:40:09;11.10;;;1.67;;
49730;SDS011;35622;52.008;5.426;2023-12-20T13:42:35;10.95;;;1.67;;
49730;SDS011;35622;52.008;5.426;2023-12-20T13:45:01;12.60;;;1.70;;
49730;SDS011;35622;52.008;5.426;2023-12-20T13:47:26;11.88;;;1.60;;
49730;SDS011;35622;52.008;5.426;2023-12-20T13:49:52;9.10;;;1.75;;
49730;SDS011;35622;52.008;5.426;2023-12-20T13:52:18;15.15;;;2.25;;
49730;SDS011;35622;52.008;5.426;2023-12-20T13:54:43;8.68;;;1.50;;
49730;SDS011;35622;52.008;5.426;2023-12-20T13:57:09;16.83;;;2.47;;
49730;SDS011;35622;52.008;5.426;2023-12-20T13:59:34;12.77;;;1.65;;
49730;SDS011;35622;52.008;5.426;2023-12-20T14:02:00;15.68;;;2.20;;
49730;SDS011;35622;52.008;5.426;2023-12-20T14:04:28;8.13;;;1.52;;
49730;SDS011;35622;52.008;5.426;2023-12-20T14:06:54;9.65;;;1.63;;
49730;SDS011;35622;52.008;5.426;2023-12-20T14:09:19;14.68;;;2.15;;
49730;SDS011;35622;52.008;5.426;2023-12-20T14:11:45;15.55;;;2.50;;
49730;SDS011;35622;52.008;5.426;2023-12-20T14:14:11;10.07;;;1.60;;
49730;SDS011;35622;52.008;5.426;2023-12-20T14:16:37;12.13;;;2.03;;
49730;SDS011;35622;52.008;5.426;2023-12-20T14:19:03;11.00;;;2.10;;
49730;SDS011;35622;52.008;5.426;2023-12-20T14:21:30;10.80;;;1.67;;
49730;SDS011;35622;52.008;5.426;2023-12-20T14:23:55;10.50;;;1.75;;
49730;SDS011;35622;52.008;5.426;2023-12-20T14:26:21;7.72;;;1.50;;
49730;SDS011;35622;52.008;5.426;2023-12-20T14:28:46;12.57;;;2.22;;
49730;SDS011;35622;52.008;5.426;2023-12-20T14:31:12;8.73;;;1.33;;
49730;SDS011;35622;52.008;5.426;2023-12-20T14:33:38;12.30;;;2.03;;
49730;SDS011;35622;52.008;5.426;2023-12-20T14:36:04;12.43;;;1.98;;
49730;SDS011;35622;52.008;5.426;2023-12-20T14:38:31;10.05;;;1.65;;